Time;durP1;ratioP1;P1;durP2;ratioP2;P2;SDS_P1;SDS_P2;PMS_P1;PMS_P2;Temp;Humidity;BMP_temperature;BMP_pressure;BME280_temperature;BME280_humidity;BME280_pressure;Samples;Min_cycle;Max_cycle;Signal;HPM_P1;HPM_P2
2021/04/29 00:01:28;;;;;;;4.78;3.60;;;11.20;99.90;;;;;;6279040;22;20050;-77
2021/04/29 00:03:59;;;;;;;4.75;3.25;;;11.10;99.90;;;;;;6254648;22;20019;-77
2021/04/29 00:06:31;;;;;;;6.07;4.25;;;11.10;99.90;;;;;;6254220;22;20015;-77
2021/04/29 00:09:04;;;;;;;5.93;4.20;;;11.10;99.90;;;;;;6254660;22;20019;-76
2021/04/29 00:11:36;;;;;;;6.22;4.78;;;11.10;99.90;;;;;;6278940;22;20041;-77
2021/04/29 00:14:10;;;;;;;5.22;4.63;;;11.00;99.90;;;;;;6278559;22;20469;-77
2021/04/29 00:16:42;;;;;;;8.82;4.80;;;11.00;99.90;;;;;;6279110;22;20094;-77
2021/04/29 00:19:13;;;;;;;6.88;4.72;;;10.90;99.90;;;;;;6254283;22;20019;-77
2021/04/29 00:21:45;;;;;;;5.47;4.88;;;10.90;99.90;;;;;;6280145;22;20016;-76
2021/04/29 00:24:11;;;;;;;7.28;5.43;;;10.80;99.90;;;;;;6253328;22;20115;-76
2021/04/29 00:26:42;;;;;;;6.38;5.45;;;10.80;99.90;;;;;;6306135;22;20015;-77
2021/04/29 00:29:13;;;;;;;6.95;4.85;;;10.80;99.90;;;;;;6280298;22;20023;-77
2021/04/29 00:31:45;;;;;;;5.15;4.35;;;10.80;99.90;;;;;;6278778;22;20037;-77
2021/04/29 00:34:17;;;;;;;5.97;4.18;;;10.80;99.90;;;;;;6279360;22;20015;-76
2021/04/29 00:36:49;;;;;;;12.70;4.22;;;10.80;99.90;;;;;;6278573;22;20021;-76
2021/04/29 00:39:20;;;;;;;4.40;3.60;;;10.90;99.90;;;;;;6254323;22;20018;-76
2021/04/29 00:41:51;;;;;;;4.40;3.25;;;10.90;99.90;;;;;;6279968;22;20404;-77
2021/04/29 00:44:22;;;;;;;6.03;3.70;;;10.90;99.90;;;;;;6279435;22;20038;-76
2021/04/29 00:46:49;;;;;;;5.03;3.15;;;10.90;99.90;;;;;;6278973;22;20093;-76
2021/04/29 00:49:20;;;;;;;4.60;3.13;;;11.00;99.90;;;;;;6254057;22;20106;-77
2021/04/29 00:51:51;;;;;;;3.88;3.47;;;11.00;99.90;;;;;;6254723;22;20321;-76
2021/04/29 00:54:22;;;;;;;4.20;3.33;;;11.00;99.90;;;;;;6253648;22;20601;-76
2021/04/29 00:56:54;;;;;;;3.95;3.17;;;11.00;99.90;;;;;;6254184;22;20011;-76
2021/04/29 00:59:25;;;;;;;3.97;3.40;;;10.90;99.90;;;;;;6278387;22;20547;-75
2021/04/29 01:02:03;;;;;;;7.10;3.90;;;10.90;99.90;;;;;;6279385;22;20095;-77
2021/04/29 01:04:55;;;;;;;6.32;3.65;;;10.90;99.90;;;;;;6277324;22;20011;-77
2021/04/29 01:07:31;;;;;;;4.30;3.28;;;10.80;99.90;;;;;;6253465;22;20021;-76
2021/04/29 01:10:08;;;;;;;4.47;3.80;;;10.80;99.90;;;;;;6252582;22;20427;-76
2021/04/29 01:12:44;;;;;;;5.95;3.50;;;10.70;99.90;;;;;;6277852;22;20025;-77
2021/04/29 01:15:17;;;;;;;4.95;3.55;;;10.70;99.90;;;;;;6277060;22;20045;-76
2021/04/29 01:17:48;;;;;;;7.43;3.75;;;10.70;99.90;;;;;;6278776;22;20021;-76
2021/04/29 01:20:47;;;;;;;5.32;3.67;;;10.70;99.90;;;;;;6278143;22;20371;-77
2021/04/29 01:23:41;;;;;;;3.78;3.20;;;10.60;99.90;;;;;;6305576;22;20025;-75
2021/04/29 01:26:26;;;;;;;3.47;2.63;;;10.60;99.90;;;;;;6253469;22;20029;-77
2021/04/29 01:28:53;;;;;;;4.15;2.28;;;10.60;99.90;;;;;;6306594;22;20057;-76
2021/04/29 01:31:29;;;;;;;3.50;2.00;;;10.70;99.90;;;;;;6306971;22;20015;-77
2021/04/29 01:34:03;;;;;;;2.78;1.80;;;10.80;99.90;;;;;;6277644;22;20098;-77
2021/04/29 01:36:35;;;;;;;2.10;1.58;;;10.90;99.90;;;;;;6279549;22;20020;-79
2021/04/29 01:39:09;;;;;;;1.90;1.42;;;11.00;99.90;;;;;;6282777;22;20094;-78
2021/04/29 01:41:45;;;;;;;2.50;1.33;;;11.10;99.90;;;;;;6285047;22;20019;-78
2021/04/29 01:44:20;;;;;;;2.47;1.42;;;11.10;99.90;;;;;;6284658;22;20383;-79
2021/04/29 01:46:52;;;;;;;1.60;1.35;;;11.20;99.90;;;;;;6284149;22;20016;-79
2021/04/29 01:49:19;;;;;;;2.33;1.73;;;11.20;99.90;;;;;;6258021;22;20456;-79
2021/04/29 01:51:51;;;;;;;1.48;1.10;;;11.20;99.90;;;;;;6311215;22;20094;-78
2021/04/29 01:54:23;;;;;;;1.30;1.10;;;11.20;99.90;;;;;;6284989;22;20025;-79
2021/04/29 01:56:54;;;;;;;2.00;1.27;;;11.20;99.90;;;;;;6259415;22;20011;-79
2021/04/29 01:59:25;;;;;;;1.65;1.00;;;11.20;99.90;;;;;;6259068;22;20410;-79
2021/04/29 02:01:57;;;;;;;2.58;1.20;;;11.10;99.90;;;;;;6311419;22;20098;-79
2021/04/29 02:04:28;;;;;;;1.40;1.02;;;11.10;99.90;;;;;;6258334;22;20015;-79
2021/04/29 02:06:59;;;;;;;1.98;0.95;;;11.10;99.90;;;;;;6284894;22;20025;-79
2021/04/29 02:09:30;;;;;;;1.40;1.10;;;11.10;99.90;;;;;;6284824;22;20025;-79
2021/04/29 02:12:03;;;;;;;1.05;0.85;;;11.10;99.90;;;;;;6311286;22;20007;-78
2021/04/29 02:14:36;;;;;;;1.20;0.98;;;11.10;99.90;;;;;;6258954;22;20321;-79
2021/04/29 02:17:13;;;;;;;;;;;11.10;99.90;;;;;;6259679;22;20522;-79
2021/04/29 02:19:47;;;;;;;1.30;1.00;;;11.00;99.90;;;;;;6284636;22;19958;-79
2021/04/29 02:22:22;;;;;;;0.98;0.85;;;11.10;99.90;;;;;;6283512;22;20106;-79
2021/04/29 02:24:54;;;;;;;1.20;0.82;;;11.00;99.90;;;;;;6310248;22;20038;-78
2021/04/29 02:27:26;;;;;;;1.48;0.90;;;11.10;99.90;;;;;;6287231;22;20481;-78
2021/04/29 02:29:57;;;;;;;2.35;0.80;;;11.10;99.90;;;;;;6312704;22;20062;-79
2021/04/29 02:32:24;;;;;;;1.30;0.75;;;11.10;99.90;;;;;;6312955;22;20519;-78
2021/04/29 02:34:55;;;;;;;2.95;0.80;;;11.10;99.90;;;;;;6286850;22;20078;-79
2021/04/29 02:37:26;;;;;;;1.52;1.00;;;11.10;99.90;;;;;;6260928;22;20350;-79
2021/04/29 02:39:59;;;;;;;1.20;0.80;;;11.10;99.90;;;;;;6261130;22;20030;-79
2021/04/29 02:42:32;;;;;;;1.05;0.75;;;11.10;99.90;;;;;;6261039;22;20412;-79
2021/04/29 02:45:05;;;;;;;1.02;0.90;;;11.20;99.90;;;;;;6286237;22;20090;-79
2021/04/29 02:47:40;;;;;;;;;;;11.20;99.90;;;;;;6312770;22;20068;-78
2021/04/29 02:50:15;;;;;;;1.23;0.82;;;11.10;99.90;;;;;;6285010;22;20291;-79
2021/04/29 02:52:52;;;;;;;0.93;0.70;;;11.20;99.90;;;;;;6284811;22;20011;-79
2021/04/29 02:55:24;;;;;;;0.80;0.77;;;11.20;99.90;;;;;;6285062;22;20419;-79
2021/04/29 02:58:01;;;;;;;1.17;0.70;;;11.10;99.90;;;;;;6261577;22;20018;-79
2021/04/29 03:00:33;;;;;;;1.20;0.98;;;11.10;99.90;;;;;;6262526;22;20015;-79
2021/04/29 03:03:07;;;;;;;1.77;0.80;;;11.20;99.90;;;;;;6288112;22;20034;-79
2021/04/29 03:05:39;;;;;;;0.80;0.70;;;11.20;99.90;;;;;;6313260;22;20011;-78
2021/04/29 03:08:10;;;;;;;0.80;0.70;;;11.20;99.90;;;;;;6261608;22;20438;-79
2021/04/29 03:10:41;;;;;;;0.98;0.77;;;11.20;99.90;;;;;;6261543;22;20043;-79
2021/04/29 03:13:13;;;;;;;1.35;0.80;;;11.20;99.90;;;;;;6260762;22;20106;-79
2021/04/29 03:15:39;;;;;;;2.67;0.90;;;11.20;99.90;;;;;;6283656;22;20102;-79
2021/04/29 03:18:10;;;;;;;1.23;0.70;;;11.20;99.90;;;;;;6312358;22;20094;-77
2021/04/29 03:20:42;;;;;;;1.33;0.98;;;11.20;99.90;;;;;;6313185;22;20018;-78
2021/04/29 03:23:14;;;;;;;1.17;0.75;;;11.20;99.90;;;;;;6260459;22;20106;-79
2021/04/29 03:25:45;;;;;;;3.13;0.90;;;11.20;99.90;;;;;;6285177;22;20519;-77
2021/04/29 03:28:17;;;;;;;1.70;0.90;;;11.30;99.90;;;;;;6261962;22;20070;-79
2021/04/29 03:30:48;;;;;;;1.08;0.77;;;11.30;99.90;;;;;;6281978;22;20090;-75
2021/04/29 03:33:19;;;;;;;2.13;0.93;;;11.30;99.90;;;;;;6318845;22;20012;-80
2021/04/29 03:35:50;;;;;;;0.90;0.70;;;11.30;99.90;;;;;;6294720;22;20011;-80
2021/04/29 03:38:22;;;;;;;1.17;0.85;;;11.30;99.90;;;;;;6292956;22;20094;-80
2021/04/29 03:40:48;;;;;;;0.90;0.80;;;11.30;99.90;;;;;;6321825;22;20360;-80
2021/04/29 03:43:19;;;;;;;1.20;0.90;;;11.30;99.90;;;;;;6320648;22;20035;-80
2021/04/29 03:45:50;;;;;;;0.80;0.73;;;11.40;99.90;;;;;;6294629;22;20035;-80
2021/04/29 03:48:21;;;;;;;0.80;0.70;;;11.40;99.90;;;;;;6292799;22;20038;-79
2021/04/29 03:50:53;;;;;;;2.15;0.90;;;11.40;99.90;;;;;;6292036;22;20475;-79
2021/04/29 03:53:24;;;;;;;1.75;0.90;;;11.30;99.90;;;;;;6319788;22;20042;-80
2021/04/29 03:55:57;;;;;;;1.10;0.80;;;11.30;99.90;;;;;;6290226;22;20416;-80
2021/04/29 03:58:28;;;;;;;1.10;0.90;;;11.30;99.90;;;;;;6291703;22;20348;-80
2021/04/29 04:00:59;;;;;;;2.20;1.00;;;11.30;99.90;;;;;;6264985;22;20019;-80
2021/04/29 04:03:31;;;;;;;1.10;1.00;;;11.40;99.90;;;;;;6291011;22;20110;-80
2021/04/29 04:06:02;;;;;;;0.90;0.70;;;11.30;99.90;;;;;;6289685;22;20098;-80
2021/04/29 04:08:33;;;;;;;1.15;0.88;;;11.30;99.90;;;;;;6292595;22;20046;-80
2021/04/29 04:11:04;;;;;;;1.85;1.10;;;11.30;99.90;;;;;;6265980;22;20011;-80
2021/04/29 04:13:35;;;;;;;1.00;0.80;;;11.30;99.90;;;;;;6267380;22;20011;-80
2021/04/29 04:16:07;;;;;;;1.17;0.88;;;11.30;99.90;;;;;;6266407;22;20063;-80
2021/04/29 04:18:33;;;;;;;1.02;0.80;;;11.40;99.90;;;;;;6320994;22;20435;-80
2021/04/29 04:21:05;;;;;;;1.88;1.00;;;11.30;99.90;;;;;;6293556;22;20102;-80
2021/04/29 04:23:36;;;;;;;1.00;0.82;;;11.30;99.90;;;;;;6319099;22;20043;-79
2021/04/29 04:26:03;;;;;;;1.42;0.90;;;11.30;99.90;;;;;;6289709;22;20070;-80
2021/04/29 04:28:34;;;;;;;2.45;1.00;;;11.30;99.90;;;;;;6292138;22;20050;-80
2021/04/29 04:31:05;;;;;;;1.45;0.93;;;11.40;99.90;;;;;;6291558;22;20431;-80
2021/04/29 04:33:36;;;;;;;2.15;0.93;;;11.30;99.90;;;;;;6290422;22;20474;-80
2021/04/29 04:36:08;;;;;;;1.58;1.05;;;11.30;99.90;;;;;;6294389;22;20090;-79
2021/04/29 04:38:39;;;;;;;1.63;0.93;;;11.30;99.90;;;;;;6292112;22;20011;-80
2021/04/29 04:41:11;;;;;;;2.08;1.00;;;11.30;99.90;;;;;;6267744;22;20089;-79
2021/04/29 04:43:42;;;;;;;2.10;0.90;;;11.30;99.90;;;;;;6320763;22;20070;-80
2021/04/29 04:46:13;;;;;;;1.52;1.35;;;11.30;99.90;;;;;;6290956;22;20057;-79
2021/04/29 04:48:44;;;;;;;4.60;1.20;;;11.30;99.90;;;;;;6293201;22;20314;-80
2021/04/29 04:51:16;;;;;;;2.20;1.20;;;11.20;99.90;;;;;;6266886;22;20518;-81
2021/04/29 04:53:47;;;;;;;2.05;1.00;;;11.20;99.90;;;;;;6318972;22;20027;-80
2021/04/29 04:56:19;;;;;;;2.72;1.40;;;11.20;99.90;;;;;;6318624;22;20258;-80
2021/04/29 04:58:50;;;;;;;3.50;1.20;;;11.20;99.90;;;;;;6319304;22;20070;-80
2021/04/29 05:01:21;;;;;;;2.45;0.95;;;11.10;99.90;;;;;;6292858;22;20098;-80
2021/04/29 05:03:54;;;;;;;2.33;1.35;;;11.10;99.90;;;;;;6292611;22;20070;-80
2021/04/29 05:06:25;;;;;;;1.73;0.88;;;11.20;99.90;;;;;;6289213;22;20075;-80
2021/04/29 05:08:57;;;;;;;1.92;0.90;;;11.10;99.90;;;;;;6290652;22;20047;-79
2021/04/29 05:11:28;;;;;;;2.70;0.90;;;11.10;99.90;;;;;;6290934;22;20067;-80
2021/04/29 05:13:59;;;;;;;1.65;0.98;;;11.10;99.90;;;;;;6291964;22;20515;-80
2021/04/29 05:16:26;;;;;;;1.83;0.90;;;11.10;99.90;;;;;;6288049;22;20035;-80
2021/04/29 05:18:59;;;;;;;1.83;1.13;;;11.10;99.90;;;;;;6290477;22;20123;-79
2021/04/29 05:21:30;;;;;;;2.38;1.40;;;11.10;99.90;;;;;;6288539;22;20418;-80
2021/04/29 05:24:02;;;;;;;1.83;1.30;;;11.00;99.90;;;;;;6287869;22;20106;-79
2021/04/29 05:26:28;;;;;;;3.13;1.25;;;11.00;99.90;;;;;;6277158;22;20042;-80
2021/04/29 05:28:55;;;;;;;3.85;1.80;;;11.00;99.90;;;;;;6280818;22;20333;-80
2021/04/29 05:31:26;;;;;;;1.65;1.00;;;11.00;99.90;;;;;;6309321;22;20444;-80
2021/04/29 05:33:57;;;;;;;2.42;1.38;;;11.00;99.90;;;;;;6283673;22;20023;-79
2021/04/29 05:36:29;;;;;;;2.15;1.27;;;11.00;99.90;;;;;;6285359;22;20337;-80
2021/04/29 05:39:00;;;;;;;1.85;1.00;;;11.00;99.90;;;;;;6285615;22;20021;-80
2021/04/29 05:41:27;;;;;;;3.92;1.40;;;11.10;99.90;;;;;;6287002;22;20050;-79
2021/04/29 05:43:53;;;;;;;2.20;1.10;;;11.00;99.90;;;;;;6316570;22;20616;-80
2021/04/29 05:46:24;;;;;;;1.65;1.10;;;11.00;99.90;;;;;;6264561;22;20115;-79
2021/04/29 05:48:56;;;;;;;1.77;1.23;;;11.10;99.90;;;;;;6314304;22;20098;-80
2021/04/29 05:51:28;;;;;;;2.70;1.25;;;11.00;99.90;;;;;;6285836;22;20015;-79
2021/04/29 05:53:59;;;;;;;3.15;1.45;;;11.00;99.90;;;;;;6312728;22;20102;-79
2021/04/29 05:56:30;;;;;;;1.95;1.23;;;11.00;99.90;;;;;;6312139;22;20094;-79
2021/04/29 05:59:03;;;;;;;2.13;0.85;;;11.00;99.90;;;;;;6285150;22;20106;-79
2021/04/29 06:01:29;;;;;;;2.05;1.38;;;11.00;99.90;;;;;;6313471;22;20022;-79
2021/04/29 06:04:01;;;;;;;1.90;1.50;;;10.90;99.90;;;;;;6262686;22;20098;-79
2021/04/29 06:06:32;;;;;;;2.00;1.75;;;11.00;99.90;;;;;;6289938;22;20023;-80
2021/04/29 06:09:04;;;;;;;3.63;1.52;;;11.00;99.90;;;;;;6263480;22;20106;-79
2021/04/29 06:11:35;;;;;;;4.03;2.70;;;10.90;99.90;;;;;;6278565;22;20025;-80
2021/04/29 06:14:07;;;;;;;2.22;1.45;;;10.90;99.90;;;;;;6259623;22;20069;-79
2021/04/29 06:16:39;;;;;;;2.55;1.17;;;10.90;99.90;;;;;;6293179;22;20007;-79
2021/04/29 06:19:11;;;;;;;2.15;1.65;;;11.00;99.90;;;;;;6268160;22;20026;-79
2021/04/29 06:21:43;;;;;;;2.72;1.33;;;10.90;99.90;;;;;;6293211;22;20074;-80
2021/04/29 06:24:15;;;;;;;3.47;1.40;;;10.90;99.90;;;;;;6267273;22;20093;-80
2021/04/29 06:26:41;;;;;;;2.40;1.40;;;10.90;99.90;;;;;;6267480;22;20071;-81
2021/04/29 06:29:08;;;;;;;2.30;1.50;;;10.90;99.90;;;;;;6292234;22;20031;-81
2021/04/29 06:31:41;;;;;;;2.67;1.75;;;10.80;99.90;;;;;;6267049;22;20042;-80
2021/04/29 06:34:13;;;;;;;2.92;1.90;;;10.80;99.90;;;;;;6289857;22;20040;-79
2021/04/29 06:36:40;;;;;;;3.20;1.90;;;10.70;99.90;;;;;;6314873;22;20015;-80
2021/04/29 06:39:12;;;;;;;4.03;1.90;;;10.80;99.90;;;;;;6262955;22;20325;-80
2021/04/29 06:41:38;;;;;;;2.72;1.65;;;10.70;99.90;;;;;;6289471;22;20073;-81
2021/04/29 06:44:10;;;;;;;2.17;1.58;;;10.80;99.90;;;;;;6289434;22;20019;-80
2021/04/29 06:46:36;;;;;;;4.30;1.83;;;10.70;99.90;;;;;;6291187;22;20046;-80
2021/04/29 06:49:03;;;;;;;3.63;2.08;;;10.60;99.90;;;;;;6292449;22;20380;-81
2021/04/29 06:51:34;;;;;;;2.80;2.40;;;10.60;99.90;;;;;;6292351;22;20118;-80
2021/04/29 06:54:00;;;;;;;3.60;2.10;;;10.50;99.90;;;;;;6265927;22;20015;-80
2021/04/29 06:56:26;;;;;;;2.92;2.00;;;10.50;99.90;;;;;;6264816;22;20011;-80
2021/04/29 06:58:53;;;;;;;4.10;2.25;;;10.60;99.90;;;;;;6290006;22;20440;-80
2021/04/29 07:01:19;;;;;;;3.03;1.90;;;10.50;99.90;;;;;;6261238;22;20456;-80
2021/04/29 07:03:45;;;;;;;3.20;2.50;;;10.50;99.90;;;;;;6287562;22;20402;-80
2021/04/29 07:06:16;;;;;;;4.68;1.88;;;10.60;99.90;;;;;;6289357;22;20019;-80
2021/04/29 07:08:48;;;;;;;3.10;2.20;;;10.60;99.90;;;;;;6290284;22;20041;-80
2021/04/29 07:11:15;;;;;;;4.50;2.63;;;10.60;99.90;;;;;;6287728;22;20050;-80
2021/04/29 07:13:46;;;;;;;3.38;2.60;;;10.50;99.90;;;;;;6262925;22;20078;-80
2021/04/29 07:16:17;;;;;;;3.55;2.03;;;10.50;99.90;;;;;;6265482;22;20042;-80
2021/04/29 07:18:49;;;;;;;3.60;2.58;;;10.60;99.90;;;;;;6316440;22;20031;-80
2021/04/29 07:21:20;;;;;;;4.13;2.30;;;10.60;99.90;;;;;;6291187;22;20015;-80
2021/04/29 07:23:51;;;;;;;3.58;2.42;;;10.60;99.90;;;;;;6263798;22;20114;-80
2021/04/29 07:26:23;;;;;;;4.05;2.58;;;10.60;99.90;;;;;;6315201;22;20094;-80
2021/04/29 07:28:55;;;;;;;5.05;2.78;;;10.60;99.90;;;;;;6289070;22;20094;-80
2021/04/29 07:31:21;;;;;;;5.88;3.65;;;10.60;99.90;;;;;;6257852;22;20045;-78
2021/04/29 07:33:52;;;;;;;5.63;2.38;;;10.60;99.90;;;;;;6259305;22;20106;-78
2021/04/29 07:36:23;;;;;;;2.70;2.28;;;10.50;99.90;;;;;;6259529;22;20098;-78
2021/04/29 07:38:50;;;;;;;4.88;2.80;;;10.50;99.90;;;;;;6256601;22;20050;-78
2021/04/29 07:41:24;;;;;;;3.95;3.00;;;10.50;99.90;;;;;;6259229;22;20463;-77
2021/04/29 07:43:59;;;;;;;5.18;2.80;;;10.60;99.90;;;;;;6282773;22;20106;-77
2021/04/29 07:46:32;;;;;;;4.53;2.95;;;10.60;99.90;;;;;;6279634;22;20443;-78
2021/04/29 07:49:03;;;;;;;3.28;2.80;;;10.60;99.90;;;;;;6307335;22;20106;-76
2021/04/29 07:51:35;;;;;;;5.40;2.92;;;10.60;99.90;;;;;;6256438;22;20019;-78
2021/04/29 07:54:06;;;;;;;4.18;2.67;;;10.60;99.90;;;;;;6280317;22;20015;-76
2021/04/29 07:56:37;;;;;;;5.90;2.72;;;10.70;99.90;;;;;;6279997;22;20019;-78
2021/04/29 07:59:10;;;;;;;6.45;4.22;;;10.70;99.90;;;;;;6279759;22;20026;-77
2021/04/29 08:01:41;;;;;;;4.27;2.73;;;10.60;99.90;;;;;;6281905;22;20101;-78
2021/04/29 08:04:13;;;;;;;4.15;3.20;;;10.60;99.90;;;;;;6283679;22;20047;-77
2021/04/29 08:06:44;;;;;;;4.43;2.83;;;10.60;99.90;;;;;;6283662;22;20023;-78
2021/04/29 08:09:15;;;;;;;6.63;3.35;;;10.70;99.90;;;;;;6310709;22;20098;-78
2021/04/29 08:11:47;;;;;;;5.65;3.53;;;10.70;99.90;;;;;;6310380;22;20007;-78
2021/04/29 08:14:18;;;;;;;4.70;3.20;;;10.70;99.90;;;;;;6282909;22;20078;-78
2021/04/29 08:16:50;;;;;;;3.67;2.85;;;10.70;99.90;;;;;;6283083;22;20011;-77
2021/04/29 08:19:21;;;;;;;3.47;3.10;;;10.80;99.90;;;;;;6258453;22;20022;-76
2021/04/29 08:21:53;;;;;;;4.65;3.13;;;10.80;99.90;;;;;;6310076;22;20427;-78
2021/04/29 08:24:24;;;;;;;5.50;3.92;;;10.80;99.90;;;;;;6279240;22;20019;-77
2021/04/29 08:26:55;;;;;;;4.82;3.50;;;10.90;99.90;;;;;;6254208;22;20019;-77
2021/04/29 08:29:23;;;;;;;5.05;3.97;;;10.80;99.90;;;;;;6278857;22;20019;-77
2021/04/29 08:31:54;;;;;;;5.75;3.83;;;10.90;99.90;;;;;;6279176;22;20426;-77
2021/04/29 08:34:25;;;;;;;5.00;3.80;;;11.00;99.90;;;;;;6253393;22;20550;-77
2021/04/29 08:36:56;;;;;;;6.43;4.55;;;11.00;99.90;;;;;;6252813;22;20038;-76
2021/04/29 08:39:28;;;;;;;5.13;4.03;;;11.10;99.90;;;;;;6278928;22;20011;-77
2021/04/29 08:41:59;;;;;;;8.23;4.40;;;11.10;99.90;;;;;;6279500;22;20025;-77
2021/04/29 08:44:32;;;;;;;6.63;4.43;;;11.10;99.90;;;;;;6277905;22;20019;-77
2021/04/29 08:47:03;;;;;;;8.05;4.90;;;11.10;99.90;;;;;;6278879;22;20015;-77
2021/04/29 08:49:36;;;;;;;10.90;4.22;;;11.20;99.90;;;;;;6280206;22;20021;-76
2021/04/29 08:52:03;;;;;;;7.53;4.50;;;11.10;99.90;;;;;;6281839;22;20011;-78
2021/04/29 08:54:37;;;;;;;5.78;4.68;;;11.10;99.90;;;;;;6310228;22;20025;-78
2021/04/29 08:57:08;;;;;;;10.75;5.05;;;11.20;99.90;;;;;;6281646;22;20462;-79
2021/04/29 08:59:40;;;;;;;7.18;4.78;;;11.20;99.90;;;;;;6258845;22;20026;-78
2021/04/29 09:02:11;;;;;;;6.80;4.97;;;11.20;99.90;;;;;;6258056;22;20034;-79
2021/04/29 09:04:43;;;;;;;9.70;4.60;;;11.30;99.90;;;;;;6256930;22;20026;-77
2021/04/29 09:07:20;;;;;;;5.93;4.40;;;11.30;99.90;;;;;;6282129;22;20069;-78
2021/04/29 09:09:51;;;;;;;6.35;4.30;;;11.40;99.90;;;;;;6283474;22;20404;-78
2021/04/29 09:12:32;;;;;;;8.65;5.00;;;11.40;99.90;;;;;;6258551;22;20022;-78
2021/04/29 09:15:05;;;;;;;5.30;4.80;;;11.40;99.90;;;;;;6282092;22;20338;-78
2021/04/29 09:17:36;;;;;;;5.50;4.13;;;11.40;99.90;;;;;;6284745;22;20090;-78
2021/04/29 09:20:08;;;;;;;7.40;5.10;;;11.40;99.90;;;;;;6257930;22;20057;-75
2021/04/29 09:22:39;;;;;;;6.32;4.72;;;11.40;99.90;;;;;;6283054;22;20019;-76
2021/04/29 09:25:12;;;;;;;9.27;4.93;;;11.40;99.90;;;;;;6281491;22;20019;-79
2021/04/29 09:27:52;;;;;;;6.80;5.40;;;11.40;99.90;;;;;;6282998;22;20410;-76
2021/04/29 09:30:25;;;;;;;9.30;4.95;;;11.40;99.90;;;;;;6282670;22;20182;-78
2021/04/29 09:33:01;;;;;;;8.57;5.97;;;11.30;99.90;;;;;;6284682;22;20448;-78
2021/04/29 09:35:37;;;;;;;9.38;5.38;;;11.30;99.90;;;;;;6281506;22;20106;-78
2021/04/29 09:38:12;;;;;;;6.47;5.25;;;11.30;99.90;;;;;;6310837;22;20487;-78
2021/04/29 09:40:44;;;;;;;6.40;5.13;;;11.20;99.90;;;;;;6311253;22;20016;-79
2021/04/29 09:43:15;;;;;;;7.57;5.25;;;11.20;99.90;;;;;;6284111;22;20023;-78
2021/04/29 09:45:58;;;;;;;7.25;5.35;;;11.30;99.90;;;;;;6259008;22;20015;-79
2021/04/29 09:48:38;;;;;;;6.93;5.03;;;11.30;99.90;;;;;;6284686;22;20043;-78
2021/04/29 09:51:08;;;;;;;7.22;4.68;;;11.30;99.90;;;;;;6311336;22;20102;-79
2021/04/29 09:53:48;;;;;;;6.75;4.68;;;11.40;99.90;;;;;;6312559;22;20408;-75
2021/04/29 09:56:15;;;;;;;8.45;4.95;;;11.40;99.90;;;;;;6252217;22;20360;-78
2021/04/29 09:58:49;;;;;;;7.80;5.00;;;11.50;99.90;;;;;;6278761;22;20466;-78
2021/04/29 10:01:23;;;;;;;8.02;4.63;;;11.50;99.90;;;;;;6278916;22;20121;-78
2021/04/29 10:03:55;;;;;;;10.85;5.38;;;11.60;99.90;;;;;;6278438;22;20371;-77
2021/04/29 10:06:26;;;;;;;5.82;4.35;;;11.60;99.90;;;;;;6306282;22;20090;-78
2021/04/29 10:08:58;;;;;;;5.85;4.72;;;11.70;99.90;;;;;;6254668;22;20007;-78
2021/04/29 10:11:29;;;;;;;7.25;5.07;;;11.80;99.90;;;;;;6254271;22;20325;-78
2021/04/29 10:14:03;;;;;;;8.02;5.30;;;11.80;99.90;;;;;;6280281;22;20011;-76
2021/04/29 10:16:35;;;;;;;10.85;5.18;;;11.80;99.90;;;;;;6280052;22;20015;-78
2021/04/29 10:19:06;;;;;;;9.35;5.35;;;11.80;99.90;;;;;;6280563;22;20021;-78
2021/04/29 10:21:37;;;;;;;6.72;5.30;;;11.80;99.90;;;;;;6281297;22;20101;-77
2021/04/29 10:24:09;;;;;;;8.02;5.22;;;11.90;99.90;;;;;;6256545;22;20416;-76
2021/04/29 10:26:38;;;;;;;7.63;5.38;;;12.00;99.90;;;;;;6280551;22;20110;-77
2021/04/29 10:29:10;;;;;;;7.07;5.03;;;12.10;99.90;;;;;;6254438;22;20019;-77
2021/04/29 10:31:42;;;;;;;7.32;5.30;;;12.10;99.90;;;;;;6305716;22;20037;-78
2021/04/29 10:34:18;;;;;;;10.25;5.97;;;12.20;99.90;;;;;;6253100;22;20015;-77
2021/04/29 10:36:51;;;;;;;6.45;5.57;;;12.20;99.90;;;;;;6278178;22;20008;-77
2021/04/29 10:39:24;;;;;;;9.07;5.30;;;12.30;99.90;;;;;;6279425;22;20437;-77
2021/04/29 10:42:09;;;;;;;7.28;5.22;;;12.20;99.90;;;;;;6253623;22;20017;-77
2021/04/29 10:45:02;;;;;;;9.23;5.55;;;12.30;99.90;;;;;;6304691;22;20523;-75
2021/04/29 10:47:34;;;;;;;5.88;5.20;;;12.50;99.90;;;;;;6232918;22;20127;-77
2021/04/29 10:50:14;;;;;;;6.80;4.82;;;12.70;99.90;;;;;;6280715;22;20106;-77
2021/04/29 10:52:53;;;;;;;10.43;5.93;;;13.00;99.90;;;;;;6280677;22;20018;-77
2021/04/29 10:55:31;;;;;;;8.23;5.93;;;13.20;99.90;;;;;;6279099;22;20542;-77
2021/04/29 10:58:07;;;;;;;13.93;6.57;;;13.50;99.90;;;;;;6254714;22;20545;-77
2021/04/29 11:01:00;;;;;;;7.05;5.85;;;13.50;99.90;;;;;;6256109;22;20470;-73
2021/04/29 11:03:36;;;;;;;8.52;5.75;;;13.60;99.90;;;;;;6280478;22;20047;-77
2021/04/29 11:06:05;;;;;;;7.00;5.07;;;13.70;99.90;;;;;;6273205;22;20406;-77
2021/04/29 11:08:39;;;;;;;8.80;6.22;;;13.60;99.90;;;;;;6279115;22;20073;-77
2021/04/29 11:11:29;;;;;;;9.35;6.43;;;13.60;99.90;;;;;;6278816;22;20047;-77
2021/04/29 11:13:59;;;;;;;8.30;5.97;;;13.60;99.90;;;;;;6253630;22;20399;-79
2021/04/29 11:16:26;;;;;;;9.05;5.65;;;13.50;99.90;;;;;;6306521;22;20094;-79
2021/04/29 11:18:58;;;;;;;9.85;5.70;;;13.60;99.90;;;;;;6306881;22;20629;-77
2021/04/29 11:21:30;;;;;;;7.53;5.45;;;13.90;99.90;;;;;;6305809;22;20057;-77
2021/04/29 11:24:01;;;;;;;10.18;6.93;;;14.10;99.90;;;;;;6278986;22;20078;-78
2021/04/29 11:26:36;;;;;;;8.38;6.72;;;14.10;99.90;;;;;;6280171;22;20094;-77
2021/04/29 11:29:07;;;;;;;7.03;5.20;;;14.10;99.90;;;;;;6279102;22;20015;-79
2021/04/29 11:31:39;;;;;;;7.82;5.38;;;14.00;99.90;;;;;;6254086;22;20466;-77
2021/04/29 11:34:10;;;;;;;7.18;5.25;;;14.00;99.90;;;;;;6304931;22;20058;-80
2021/04/29 11:36:41;;;;;;;7.88;5.80;;;14.00;99.90;;;;;;6279373;22;20015;-77
2021/04/29 11:39:12;;;;;;;8.35;5.55;;;14.10;99.90;;;;;;6278290;22;20101;-78
2021/04/29 11:41:43;;;;;;;9.15;5.95;;;13.90;99.90;;;;;;6305819;22;20029;-77
2021/04/29 11:44:16;;;;;;;10.95;5.68;;;13.90;99.90;;;;;;6253380;22;20097;-77
2021/04/29 11:46:47;;;;;;;7.20;6.50;;;13.80;99.90;;;;;;6280123;22;20451;-77
2021/04/29 11:49:19;;;;;;;7.93;5.78;;;13.80;99.90;;;;;;6278398;22;20258;-79
2021/04/29 11:51:52;;;;;;;7.20;5.40;;;13.90;99.90;;;;;;6278312;22;20035;-77
2021/04/29 11:54:23;;;;;;;10.75;5.50;;;13.90;99.90;;;;;;6277813;22;20011;-78
2021/04/29 11:56:59;;;;;;;8.18;5.68;;;13.90;99.90;;;;;;6304223;22;20609;-77
2021/04/29 11:59:31;;;;;;;8.43;5.55;;;13.90;99.90;;;;;;6305621;22;20021;-77
2021/04/29 12:02:03;;;;;;;8.57;5.47;;;13.80;99.90;;;;;;6278252;22;20041;-77
2021/04/29 12:04:34;;;;;;;9.02;5.50;;;13.70;99.90;;;;;;6279171;22;20107;-73
2021/04/29 12:07:07;;;;;;;8.98;5.43;;;13.70;99.30;;;;;;6254017;22;20047;-73
2021/04/29 12:09:40;;;;;;;7.47;4.88;;;13.60;99.90;;;;;;6305426;22;20019;-73
2021/04/29 12:12:19;;;;;;;7.43;5.53;;;13.50;99.90;;;;;;6278121;22;20019;-73
2021/04/29 12:14:53;;;;;;;6.25;4.55;;;13.50;99.90;;;;;;6278926;22;20086;-73
2021/04/29 12:17:26;;;;;;;6.35;4.55;;;13.50;99.90;;;;;;6305643;22;20011;-75
2021/04/29 12:19:57;;;;;;;8.20;4.28;;;13.40;99.90;;;;;;6279402;22;20011;-73
2021/04/29 12:22:25;;;;;;;6.57;4.35;;;13.40;99.90;;;;;;6252396;22;20023;-72
2021/04/29 12:24:52;;;;;;;7.53;4.80;;;13.40;99.90;;;;;;6252165;22;20023;-72
2021/04/29 12:27:23;;;;;;;6.78;4.20;;;13.40;99.90;;;;;;6277992;22;20025;-73
2021/04/29 12:30:05;;;;;;;7.63;4.53;;;13.40;99.90;;;;;;6305194;22;20403;-76
2021/04/29 12:32:39;;;;;;;7.57;4.65;;;13.30;99.90;;;;;;6277748;22;20021;-75
2021/04/29 12:35:26;;;;;;;6.40;3.90;;;13.20;99.90;;;;;;6253152;22;20011;-76
2021/04/29 12:37:57;;;;;;;8.55;4.78;;;13.10;99.90;;;;;;6304772;22;20095;-75
2021/04/29 12:40:33;;;;;;;7.38;4.60;;;13.00;99.90;;;;;;6279287;22;20086;-75
2021/04/29 12:43:16;;;;;;;6.22;4.88;;;12.80;99.90;;;;;;6279313;22;20531;-75
2021/04/29 12:45:56;;;;;;;7.85;4.65;;;12.70;99.90;;;;;;6278663;22;20019;-77
2021/04/29 12:48:39;;;;;;;7.20;5.40;;;12.50;99.90;;;;;;6278990;22;20025;-77
2021/04/29 12:51:19;;;;;;;8.83;5.63;;;12.40;99.90;;;;;;6279192;22;20026;-77
2021/04/29 12:54:01;;;;;;;9.02;5.70;;;12.50;99.90;;;;;;6252926;22;20718;-78
2021/04/29 12:56:38;;;;;;;7.93;5.88;;;12.50;99.90;;;;;;6278837;22;20015;-77
2021/04/29 12:59:14;;;;;;;7.03;5.15;;;12.50;99.90;;;;;;6276100;22;20327;-79
2021/04/29 13:01:47;;;;;;;8.98;5.82;;;12.60;99.90;;;;;;6253234;22;20102;-77
2021/04/29 13:04:21;;;;;;;7.13;5.43;;;12.50;99.90;;;;;;6303889;22;20011;-76
2021/04/29 13:06:59;;;;;;;7.32;5.25;;;12.60;99.90;;;;;;6304619;22;20011;-76
2021/04/29 13:09:32;;;;;;;8.80;5.75;;;12.60;99.90;;;;;;6276348;22;20019;-76
2021/04/29 13:12:11;;;;;;;6.50;4.78;;;12.60;99.90;;;;;;6300249;22;20094;-76
2021/04/29 13:14:44;;;;;;;11.07;5.75;;;12.70;99.90;;;;;;6302168;22;20019;-77